createdAt,value
2023-12-29T00:00:16.925Z,88.9
2023-12-29T00:01:17.601Z,89.0
2023-12-29T00:02:17.245Z,88.8
2023-12-29T00:03:16.859Z,88.7
2023-12-29T00:04:17.463Z,88.8
2023-12-29T00:05:17.063Z,88.8
2023-12-29T00:06:16.644Z,88.8
2023-12-29T00:07:21.998Z,88.8
2023-12-29T00:08:16.857Z,88.8
2023-12-29T00:09:17.406Z,88.9
2023-12-29T00:10:17.054Z,89.0
2023-12-29T00:11:16.643Z,89.1
2023-12-29T00:12:17.324Z,89.0
2023-12-29T00:13:16.974Z,88.9
2023-12-29T00:14:16.524Z,89.0
2023-12-29T00:15:17.206Z,89.0
2023-12-29T00:16:16.859Z,89.1
2023-12-29T00:17:17.505Z,89.1
2023-12-29T00:18:17.171Z,89.2
2023-12-29T00:19:17.258Z,89.3
2023-12-29T00:20:33.688Z,89.5
2023-12-29T00:21:20.928Z,89.5
2023-12-29T00:22:16.712Z,89.4
2023-12-29T00:23:17.308Z,89.4
2023-12-29T00:24:16.856Z,89.3
2023-12-29T00:25:17.525Z,89.3
2023-12-29T00:26:17.095Z,89.4
2023-12-29T00:27:16.643Z,89.5
2023-12-29T00:28:17.206Z,89.5
2023-12-29T00:29:16.773Z,89.4
2023-12-29T00:30:17.369Z,89.6
2023-12-29T00:31:17.329Z,89.7
2023-12-29T00:32:17.030Z,90.0
2023-12-29T00:33:16.805Z,90.0
2023-12-29T00:34:17.556Z,89.9
2023-12-29T00:35:17.270Z,90.0
2023-12-29T00:36:16.809Z,90.2
2023-12-29T00:37:17.474Z,90.4
2023-12-29T00:38:17.088Z,90.4
2023-12-29T00:39:16.663Z,90.5
2023-12-29T00:40:17.419Z,90.2
2023-12-29T00:41:17.053Z,90.3
2023-12-29T00:42:16.629Z,90.3
2023-12-29T00:43:19.276Z,90.0
2023-12-29T00:44:16.840Z,89.7
2023-12-29T00:45:17.460Z,89.5
2023-12-29T00:46:17.255Z,89.5
2023-12-29T00:47:17.010Z,89.3
2023-12-29T00:48:16.944Z,89.3
2023-12-29T00:49:16.820Z,89.4
2023-12-29T00:50:17.518Z,89.4
2023-12-29T00:51:17.087Z,89.4
2023-12-29T00:52:16.691Z,89.2
2023-12-29T00:53:17.323Z,88.7
2023-12-29T00:54:17.540Z,88.5
2023-12-29T00:55:17.384Z,88.4
2023-12-29T00:56:16.969Z,88.3
2023-12-29T00:57:16.589Z,88.4
2023-12-29T00:58:17.449Z,88.4
2023-12-29T00:59:17.053Z,88.7
2023-12-29T01:00:16.628Z,88.8
2023-12-29T01:01:17.316Z,88.9
2023-12-29T01:02:16.965Z,88.6
2023-12-29T01:03:17.593Z,88.7
2023-12-29T01:04:17.893Z,88.8
2023-12-29T01:05:16.641Z,88.8
2023-12-29T01:06:17.234Z,88.6
2023-12-29T01:07:17.122Z,88.4
2023-12-29T01:08:16.792Z,88.4
2023-12-29T01:09:17.369Z,88.5
2023-12-29T01:10:17.124Z,88.5
2023-12-29T01:11:16.797Z,88.4
2023-12-29T01:12:17.371Z,88.3
2023-12-29T01:13:18.368Z,88.3
2023-12-29T01:14:16.936Z,88.3
2023-12-29T01:15:17.508Z,88.2
2023-12-29T01:16:17.170Z,88.1
2023-12-29T01:17:16.739Z,88.2
2023-12-29T01:18:17.501Z,88.1
2023-12-29T01:19:17.374Z,88.3
2023-12-29T01:20:17.102Z,88.3
2023-12-29T01:21:16.690Z,88.3
2023-12-29T01:22:17.394Z,88.5
2023-12-29T01:23:16.995Z,89.2
2023-12-29T01:24:20.579Z,89.3
2023-12-29T01:25:17.513Z,89.5
2023-12-29T01:26:17.083Z,90.0
2023-12-29T01:27:16.797Z,90.2
2023-12-29T01:28:17.480Z,90.2
2023-12-29T01:29:17.184Z,90.1
2023-12-29T01:30:16.833Z,90.3
2023-12-29T01:31:17.855Z,90.4
2023-12-29T01:32:17.481Z,90.4
2023-12-29T01:33:17.198Z,90.4
2023-12-29T01:34:16.888Z,90.5
2023-12-29T01:35:20.428Z,90.6
2023-12-29T01:36:24.408Z,90.9
2023-12-29T01:37:17.125Z,90.9
2023-12-29T01:38:16.725Z,91.0
2023-12-29T01:39:17.349Z,91.2
2023-12-29T01:40:17.101Z,91.5
2023-12-29T01:41:16.717Z,92.0
2023-12-29T01:42:17.277Z,92.1
2023-12-29T01:43:16.983Z,92.2
2023-12-29T01:44:16.546Z,92.1
2023-12-29T01:45:17.112Z,92.3
2023-12-29T01:46:16.740Z,92.2
2023-12-29T01:47:17.510Z,92.0
2023-12-29T01:48:17.352Z,91.7
2023-12-29T01:49:17.043Z,92.1
2023-12-29T01:50:20.742Z,92.0
2023-12-29T01:51:16.865Z,92.1
2023-12-29T01:52:17.615Z,92.1
2023-12-29T01:53:17.220Z,91.9
2023-12-29T01:54:17.135Z,91.7
2023-12-29T01:55:17.023Z,91.5
2023-12-29T01:56:16.648Z,91.3
2023-12-29T01:57:17.220Z,91.2
2023-12-29T01:58:16.868Z,91.2
2023-12-29T01:59:23.207Z,90.9
2023-12-29T02:00:16.512Z,90.7
2023-12-29T02:01:17.229Z,90.6
2023-12-29T02:02:16.855Z,90.8
2023-12-29T02:03:17.458Z,90.6
2023-12-29T02:04:17.157Z,90.7
2023-12-29T02:05:16.892Z,90.3
2023-12-29T02:06:17.604Z,90.3
2023-12-29T02:07:17.405Z,90.2
2023-12-29T02:08:17.001Z,90.3
2023-12-29T02:09:16.668Z,90.0
2023-12-29T02:10:17.675Z,90.0
2023-12-29T02:11:17.285Z,89.9
2023-12-29T02:12:16.842Z,89.7
2023-12-29T02:13:17.506Z,89.3
2023-12-29T02:14:17.110Z,89.3
2023-12-29T02:15:16.668Z,89.2
2023-12-29T02:16:18.148Z,89.3
2023-12-29T02:17:16.832Z,89.0
2023-12-29T02:18:17.729Z,89.2
2023-12-29T02:19:17.725Z,89.4
2023-12-29T02:20:17.312Z,89.2
2023-12-29T02:21:16.896Z,88.9
2023-12-29T02:22:17.570Z,89.1
2023-12-29T02:23:17.137Z,89.1
2023-12-29T02:24:16.726Z,89.2
2023-12-29T02:25:17.470Z,89.2
2023-12-29T02:26:17.074Z,89.4
2023-12-29T02:27:16.616Z,89.4
2023-12-29T02:28:17.511Z,89.4
2023-12-29T02:29:17.138Z,89.4
2023-12-29T02:30:16.750Z,89.5
2023-12-29T02:31:17.598Z,89.5
2023-12-29T02:32:17.237Z,89.3
2023-12-29T02:33:17.072Z,89.4
2023-12-29T02:34:17.104Z,89.5
2023-12-29T02:35:16.802Z,89.7
2023-12-29T02:36:17.456Z,89.7
2023-12-29T02:37:17.159Z,90.0
2023-12-29T02:38:16.750Z,89.6
2023-12-29T02:39:17.318Z,89.5
2023-12-29T02:40:17.108Z,89.5
2023-12-29T02:41:16.761Z,89.5
2023-12-29T02:42:17.320Z,89.4
2023-12-29T02:43:17.168Z,89.5
2023-12-29T02:44:16.781Z,89.4
2023-12-29T02:45:17.369Z,89.2
2023-12-29T02:46:17.127Z,89.2
2023-12-29T02:47:16.712Z,89.4
2023-12-29T02:48:17.483Z,89.5
2023-12-29T02:49:17.244Z,89.5
2023-12-29T02:50:16.940Z,89.4
2023-12-29T02:51:17.528Z,89.4
2023-12-29T02:52:17.143Z,89.7
2023-12-29T02:53:16.770Z,89.7
2023-12-29T02:54:17.347Z,90.0
2023-12-29T02:55:17.124Z,89.9
2023-12-29T02:56:16.798Z,89.7
2023-12-29T02:57:17.386Z,89.7
2023-12-29T02:58:17.016Z,89.7
2023-12-29T02:59:16.582Z,89.9
2023-12-29T03:00:17.189Z,89.9
2023-12-29T03:01:17.023Z,89.9
2023-12-29T03:02:16.634Z,90.0
2023-12-29T03:03:17.299Z,90.1
2023-12-29T03:04:17.168Z,90.3
2023-12-29T03:05:16.984Z,90.3
2023-12-29T03:06:16.641Z,90.1
2023-12-29T03:07:17.340Z,90.2
2023-12-29T03:08:16.935Z,90.3
2023-12-29T03:09:17.471Z,90.4
2023-12-29T03:10:17.258Z,90.3
2023-12-29T03:11:16.918Z,90.4
2023-12-29T03:12:16.851Z,90.1
2023-12-29T03:13:17.587Z,90.1
2023-12-29T03:14:17.237Z,90.1
2023-12-29T03:15:16.856Z,90.0
2023-12-29T03:16:17.523Z,90.1
2023-12-29T03:17:17.095Z,90.2
2023-12-29T03:18:16.912Z,90.2
2023-12-29T03:19:17.643Z,90.4
2023-12-29T03:20:17.247Z,90.5
2023-12-29T03:21:16.832Z,90.6
2023-12-29T03:22:17.471Z,90.6
2023-12-29T03:23:17.034Z,90.7
2023-12-29T03:24:16.612Z,90.6
2023-12-29T03:25:17.468Z,90.8
2023-12-29T03:26:17.155Z,90.6
2023-12-29T03:27:16.757Z,90.8
2023-12-29T03:28:17.482Z,90.9
2023-12-29T03:29:17.417Z,91.1
2023-12-29T03:30:17.254Z,91.1
2023-12-29T03:31:17.065Z,91.2
2023-12-29T03:32:16.750Z,91.3
2023-12-29T03:33:17.551Z,91.5
2023-12-29T03:34:17.379Z,91.4
2023-12-29T03:35:17.084Z,91.5
2023-12-29T03:36:16.630Z,91.6
2023-12-29T03:37:17.282Z,91.5
2023-12-29T03:38:16.864Z,91.5
2023-12-29T03:39:17.417Z,91.5
2023-12-29T03:40:17.104Z,91.4
2023-12-29T03:41:16.748Z,91.4
2023-12-29T03:42:17.300Z,91.5
2023-12-29T03:43:16.971Z,91.5
2023-12-29T03:44:16.625Z,91.5
2023-12-29T03:45:17.318Z,91.5
2023-12-29T03:46:16.898Z,91.3
2023-12-29T03:47:17.448Z,91.4
2023-12-29T03:48:17.274Z,91.6
2023-12-29T03:49:16.995Z,91.8
2023-12-29T03:50:16.640Z,91.9
2023-12-29T03:51:17.251Z,91.9
2023-12-29T03:52:16.893Z,92.0
2023-12-29T03:53:17.446Z,92.0
2023-12-29T03:54:17.035Z,92.1
2023-12-29T03:55:16.818Z,92.2
2023-12-29T03:56:17.534Z,92.3
2023-12-29T03:57:17.137Z,92.2
2023-12-29T03:58:16.742Z,92.4
2023-12-29T03:59:17.427Z,92.4
2023-12-29T04:00:17.114Z,92.4
2023-12-29T04:01:17.030Z,92.4
2023-12-29T04:02:16.697Z,92.4
2023-12-29T04:03:17.325Z,92.4
2023-12-29T04:04:17.039Z,92.4
2023-12-29T04:05:16.734Z,92.4
2023-12-29T04:06:17.286Z,92.4
2023-12-29T04:07:16.855Z,92.5
2023-12-29T04:08:17.445Z,92.6
2023-12-29T04:09:17.042Z,92.6
2023-12-29T04:10:16.633Z,92.6
2023-12-29T04:11:17.200Z,92.5
2023-12-29T04:12:16.760Z,92.6
2023-12-29T04:13:17.302Z,92.6
2023-12-29T04:14:16.974Z,92.7
2023-12-29T04:15:16.579Z,92.7
2023-12-29T04:16:17.152Z,92.7
2023-12-29T04:17:16.705Z,92.6
2023-12-29T04:18:17.461Z,92.4
2023-12-29T04:19:17.321Z,92.3
2023-12-29T04:20:16.944Z,92.3
2023-12-29T04:21:17.563Z,92.3
2023-12-29T04:22:17.107Z,92.4
2023-12-29T04:23:16.678Z,92.4
2023-12-29T04:24:17.285Z,92.2
2023-12-29T04:25:16.849Z,92.1
2023-12-29T04:26:17.455Z,92.2
2023-12-29T04:27:16.989Z,92.5
2023-12-29T04:28:16.585Z,92.2
2023-12-29T04:29:17.151Z,92.3
2023-12-29T04:30:16.767Z,91.9
2023-12-29T04:31:17.447Z,91.7
2023-12-29T04:32:17.031Z,91.7
2023-12-29T04:33:16.702Z,91.4
2023-12-29T04:34:17.635Z,91.4
2023-12-29T04:35:17.282Z,91.5
2023-12-29T04:36:16.824Z,91.5
2023-12-29T04:37:17.381Z,91.7
2023-12-29T04:38:16.933Z,91.7
2023-12-29T04:39:17.511Z,92.0
2023-12-29T04:40:17.059Z,91.6
2023-12-29T04:41:16.627Z,91.1
2023-12-29T04:42:17.220Z,90.9
2023-12-29T04:43:16.803Z,91.0
2023-12-29T04:44:17.351Z,91.3
2023-12-29T04:45:16.890Z,91.4
2023-12-29T04:46:17.581Z,90.8
2023-12-29T04:47:17.150Z,90.7
2023-12-29T04:48:16.774Z,90.4
2023-12-29T04:49:17.592Z,90.4
2023-12-29T04:50:17.377Z,90.5
2023-12-29T04:51:16.990Z,90.9
2023-12-29T04:52:16.601Z,91.1
2023-12-29T04:53:17.170Z,90.6
2023-12-29T04:54:16.739Z,90.4
2023-12-29T04:55:17.563Z,90.3
2023-12-29T04:56:17.228Z,89.8
2023-12-29T04:57:16.789Z,89.4
2023-12-29T04:58:17.471Z,89.3
2023-12-29T04:59:17.091Z,89.0
2023-12-29T05:00:16.693Z,88.9
2023-12-29T05:01:17.392Z,88.7
2023-12-29T05:02:17.122Z,88.5
2023-12-29T05:03:16.745Z,88.6
2023-12-29T05:04:17.497Z,88.6
2023-12-29T05:05:17.174Z,88.5
2023-12-29T05:06:16.735Z,87.8
2023-12-29T05:07:17.386Z,87.6
2023-12-29T05:08:17.001Z,87.6
2023-12-29T05:09:16.560Z,87.9
2023-12-29T05:10:17.285Z,87.9
2023-12-29T05:11:16.874Z,88.1
2023-12-29T05:12:17.448Z,87.5
2023-12-29T05:13:17.065Z,86.8
2023-12-29T05:14:16.620Z,86.9
2023-12-29T05:15:17.172Z,86.7
2023-12-29T05:16:16.747Z,87.2
2023-12-29T05:17:17.299Z,87.5
2023-12-29T05:18:17.063Z,87.4
2023-12-29T05:19:16.881Z,86.9
2023-12-29T05:20:17.498Z,86.7
2023-12-29T05:21:17.037Z,86.9
2023-12-29T05:22:16.765Z,86.7
2023-12-29T05:23:17.353Z,87.0
2023-12-29T05:24:16.897Z,87.2
2023-12-29T05:25:17.579Z,87.1
2023-12-29T05:26:17.166Z,87.1
2023-12-29T05:27:16.710Z,86.8
2023-12-29T05:28:17.357Z,86.6
2023-12-29T05:29:16.909Z,86.9
2023-12-29T05:30:17.520Z,87.3
2023-12-29T05:31:17.208Z,87.2
2023-12-29T05:32:16.946Z,87.2
2023-12-29T05:33:16.781Z,87.3
2023-12-29T05:34:17.551Z,87.4
2023-12-29T05:35:17.156Z,87.5
2023-12-29T05:36:16.682Z,87.2
2023-12-29T05:37:17.480Z,87.3
2023-12-29T05:38:17.118Z,87.4
2023-12-29T05:39:16.684Z,87.6
2023-12-29T05:40:17.386Z,87.6
2023-12-29T05:41:17.014Z,87.4
2023-12-29T05:42:16.563Z,87.0
2023-12-29T05:43:17.180Z,87.0
2023-12-29T05:44:16.751Z,87.0
2023-12-29T05:45:17.296Z,87.3
2023-12-29T05:46:17.059Z,87.5
2023-12-29T05:47:16.657Z,87.6
2023-12-29T05:48:17.382Z,87.8
2023-12-29T05:49:17.180Z,87.9
2023-12-29T05:50:16.794Z,87.8
2023-12-29T05:51:17.328Z,87.8
2023-12-29T05:52:17.031Z,88.0
2023-12-29T05:53:16.626Z,87.9
2023-12-29T05:54:17.170Z,87.9
2023-12-29T05:55:16.790Z,87.9
2023-12-29T05:56:17.363Z,88.3
2023-12-29T05:57:16.893Z,88.3
2023-12-29T05:58:17.575Z,88.1
2023-12-29T05:59:17.166Z,87.9
2023-12-29T06:00:16.732Z,88.0
2023-12-29T06:01:17.444Z,88.2
2023-12-29T06:02:17.024Z,88.6
2023-12-29T06:03:16.649Z,88.9
2023-12-29T06:04:17.324Z,88.9
2023-12-29T06:05:16.915Z,88.8
2023-12-29T06:06:17.568Z,89.1
2023-12-29T06:07:17.249Z,89.1
2023-12-29T06:08:16.859Z,89.3
2023-12-29T06:09:17.396Z,89.5
2023-12-29T06:10:17.072Z,89.8
2023-12-29T06:11:16.661Z,89.7
2023-12-29T06:12:17.224Z,89.5
2023-12-29T06:13:16.908Z,89.4
2023-12-29T06:14:17.475Z,89.6
2023-12-29T06:15:17.679Z,89.9
2023-12-29T06:16:17.441Z,89.8
2023-12-29T06:17:17.078Z,90.1
2023-12-29T06:18:16.913Z,90.1
2023-12-29T06:19:17.638Z,90.1
2023-12-29T06:20:17.200Z,89.9
2023-12-29T06:21:16.755Z,89.9
2023-12-29T06:22:17.430Z,89.7
2023-12-29T06:23:16.998Z,89.6
2023-12-29T06:24:16.588Z,89.6
2023-12-29T06:25:17.261Z,89.8
2023-12-29T06:26:16.874Z,90.2
2023-12-29T06:27:17.474Z,90.2
2023-12-29T06:28:17.157Z,90.4
2023-12-29T06:29:16.760Z,90.9
2023-12-29T06:30:17.394Z,90.9
2023-12-29T06:31:17.112Z,90.7
2023-12-29T06:32:16.686Z,90.8
2023-12-29T06:33:17.302Z,90.9
2023-12-29T06:34:17.324Z,90.9
2023-12-29T06:35:17.053Z,91.1
2023-12-29T06:36:16.611Z,91.5
2023-12-29T06:37:17.203Z,91.4
2023-12-29T06:38:16.804Z,91.4
2023-12-29T06:39:17.400Z,91.7
2023-12-29T06:40:17.064Z,91.8
2023-12-29T06:41:16.696Z,92.0
2023-12-29T06:42:17.274Z,92.2
2023-12-29T06:43:16.883Z,92.3
2023-12-29T06:44:17.434Z,92.2
2023-12-29T06:45:16.993Z,92.3
2023-12-29T06:46:16.780Z,92.0
2023-12-29T06:47:17.441Z,92.0
2023-12-29T06:48:20.849Z,92.1
2023-12-29T06:49:17.234Z,92.1
2023-12-29T06:50:16.949Z,92.2
2023-12-29T06:51:17.541Z,92.8
2023-12-29T06:52:17.195Z,92.4
2023-12-29T06:53:16.799Z,92.4
2023-12-29T06:54:17.352Z,92.5
2023-12-29T06:55:17.006Z,92.2
2023-12-29T06:56:16.604Z,92.2
2023-12-29T06:57:17.150Z,92.3
2023-12-29T06:58:16.818Z,92.6
2023-12-29T06:59:17.427Z,92.5
2023-12-29T07:00:17.066Z,92.6
2023-12-29T07:01:16.845Z,92.6
2023-12-29T07:02:17.493Z,92.6
2023-12-29T07:03:17.107Z,92.7
2023-12-29T07:04:16.759Z,92.6
2023-12-29T07:05:17.438Z,92.4
2023-12-29T07:06:17.027Z,92.4
2023-12-29T07:07:16.874Z,92.4
2023-12-29T07:08:17.459Z,92.4
2023-12-29T07:09:17.042Z,92.3
2023-12-29T07:10:16.918Z,92.4
2023-12-29T07:11:16.582Z,92.5
2023-12-29T07:12:17.208Z,91.8
2023-12-29T07:13:16.971Z,91.3
2023-12-29T07:14:16.673Z,91.1
2023-12-29T07:15:17.280Z,91.1
2023-12-29T07:16:16.891Z,91.1
2023-12-29T07:17:17.552Z,91.0
2023-12-29T07:18:17.422Z,90.4
2023-12-29T07:19:17.272Z,90.4
2023-12-29T07:20:16.867Z,90.6
2023-12-29T07:21:20.491Z,90.3
2023-12-29T07:22:17.128Z,90.0
2023-12-29T07:23:16.798Z,89.9
2023-12-29T07:24:17.350Z,90.0
2023-12-29T07:25:17.236Z,89.8
2023-12-29T07:26:16.862Z,89.4
2023-12-29T07:27:17.443Z,89.3
2023-12-29T07:28:17.163Z,89.4
2023-12-29T07:29:16.821Z,89.1
2023-12-29T07:30:17.536Z,89.3
2023-12-29T07:31:17.360Z,89.6
2023-12-29T07:32:16.947Z,89.3
2023-12-29T07:33:17.845Z,89.5
2023-12-29T07:34:17.666Z,89.5
2023-12-29T07:35:17.560Z,89.6
2023-12-29T07:36:18.815Z,89.6
2023-12-29T07:37:17.497Z,89.8
2023-12-29T07:38:17.180Z,89.7
2023-12-29T07:39:16.717Z,89.7
2023-12-29T07:40:17.456Z,89.8
2023-12-29T07:41:17.000Z,90.0
2023-12-29T07:42:16.599Z,89.8
2023-12-29T07:43:17.444Z,89.9
2023-12-29T07:44:17.065Z,89.8
2023-12-29T07:45:16.629Z,89.6
2023-12-29T07:46:17.274Z,89.6
2023-12-29T07:47:16.875Z,89.6
2023-12-29T07:48:17.578Z,89.6
2023-12-29T07:49:17.317Z,90.0
2023-12-29T07:50:16.919Z,89.8
2023-12-29T07:51:17.470Z,89.8
2023-12-29T07:52:17.165Z,90.0
2023-12-29T07:53:16.723Z,89.8
2023-12-29T07:54:17.252Z,89.9
2023-12-29T07:55:16.848Z,89.9
2023-12-29T07:56:17.436Z,89.8
2023-12-29T07:57:17.036Z,89.9
2023-12-29T07:58:16.655Z,89.8
2023-12-29T07:59:17.239Z,89.8
2023-12-29T08:00:16.802Z,89.8
2023-12-29T08:01:17.524Z,90.0
2023-12-29T08:02:17.254Z,90.0
2023-12-29T08:03:16.875Z,90.0
2023-12-29T08:04:17.658Z,90.2
2023-12-29T08:05:17.310Z,90.2
2023-12-29T08:06:17.068Z,90.0
2023-12-29T08:07:16.828Z,90.0
2023-12-29T08:08:17.471Z,90.0
2023-12-29T08:09:17.061Z,90.0
2023-12-29T08:10:16.725Z,90.0
2023-12-29T08:11:17.615Z,89.8
2023-12-29T08:12:17.201Z,89.9
2023-12-29T08:13:16.882Z,89.9
2023-12-29T08:14:17.484Z,90.0
2023-12-29T08:15:17.034Z,90.1
2023-12-29T08:16:16.813Z,90.2
2023-12-29T08:17:17.428Z,90.3
2023-12-29T08:18:17.088Z,90.3
2023-12-29T08:19:16.923Z,90.2
2023-12-29T08:20:16.565Z,90.2
2023-12-29T08:21:17.145Z,90.8
2023-12-29T08:22:16.769Z,91.1
2023-12-29T08:23:17.356Z,91.0
2023-12-29T08:24:16.923Z,91.0
2023-12-29T08:25:17.580Z,90.9
2023-12-29T08:26:17.205Z,91.0
2023-12-29T08:27:16.770Z,91.0
2023-12-29T08:28:17.400Z,91.1
2023-12-29T08:29:17.002Z,91.1
2023-12-29T08:30:16.626Z,91.0
2023-12-29T08:31:17.623Z,90.6
2023-12-29T08:32:17.243Z,90.5
2023-12-29T08:33:16.779Z,90.5
2023-12-29T08:34:20.309Z,90.3
2023-12-29T08:35:17.024Z,90.1
2023-12-29T08:36:16.683Z,90.1
2023-12-29T08:37:17.320Z,90.3
2023-12-29T08:38:16.896Z,90.4
2023-12-29T08:39:17.469Z,90.4
2023-12-29T08:40:17.141Z,90.5
2023-12-29T08:41:16.704Z,90.7
2023-12-29T08:42:17.325Z,90.6
2023-12-29T08:43:17.063Z,90.5
2023-12-29T08:44:16.649Z,89.5
2023-12-29T08:45:17.207Z,87.8
2023-12-29T08:46:17.017Z,87.7
2023-12-29T08:47:16.580Z,87.6
2023-12-29T08:48:17.305Z,87.8
2023-12-29T08:49:17.083Z,87.7
2023-12-29T08:50:16.656Z,87.9
2023-12-29T08:51:17.216Z,88.0
2023-12-29T08:52:16.940Z,87.8
2023-12-29T08:53:16.537Z,87.3
2023-12-29T08:54:17.091Z,86.6
2023-12-29T08:55:16.931Z,86.3
2023-12-29T08:56:16.546Z,85.9
2023-12-29T08:57:17.099Z,85.7
2023-12-29T08:58:16.701Z,84.7
2023-12-29T08:59:17.262Z,83.9
2023-12-29T09:00:16.820Z,83.5
2023-12-29T09:01:17.519Z,83.5
2023-12-29T09:02:17.088Z,83.4
2023-12-29T09:03:16.713Z,82.7
2023-12-29T09:04:17.450Z,82.5
2023-12-29T09:05:17.154Z,82.5
2023-12-29T09:06:16.763Z,82.6
2023-12-29T09:07:17.459Z,82.6
2023-12-29T09:08:17.049Z,82.1
2023-12-29T09:09:16.604Z,81.8
2023-12-29T09:10:17.393Z,81.5
2023-12-29T09:11:17.954Z,81.6
2023-12-29T09:12:17.533Z,81.3
2023-12-29T09:13:17.222Z,81.6
2023-12-29T09:14:16.811Z,81.6
2023-12-29T09:15:17.465Z,81.8
2023-12-29T09:16:17.226Z,81.8
2023-12-29T09:17:16.809Z,81.8
2023-12-29T09:18:17.541Z,81.7
2023-12-29T09:19:31.550Z,81.8
2023-12-29T09:20:16.954Z,81.6
2023-12-29T09:21:16.613Z,81.4
2023-12-29T09:22:17.287Z,81.8
2023-12-29T09:23:16.895Z,81.2
2023-12-29T09:24:17.458Z,81.1
2023-12-29T09:25:17.162Z,80.8
2023-12-29T09:26:16.737Z,81.3
2023-12-29T09:27:17.290Z,81.6
2023-12-29T09:28:16.996Z,81.6
2023-12-29T09:29:16.595Z,81.6
2023-12-29T09:30:17.220Z,81.5
2023-12-29T09:31:17.040Z,81.3
2023-12-29T09:32:16.660Z,81.1
2023-12-29T09:33:17.246Z,81.4
2023-12-29T09:34:16.983Z,81.1
2023-12-29T09:35:16.577Z,81.3
2023-12-29T09:36:17.147Z,81.1
2023-12-29T09:37:17.875Z,81.2
2023-12-29T09:38:17.528Z,81.3
2023-12-29T09:39:17.082Z,81.4
2023-12-29T09:40:16.882Z,81.3
2023-12-29T09:41:16.557Z,81.0
2023-12-29T09:42:17.175Z,81.1
2023-12-29T09:43:16.953Z,81.4
2023-12-29T09:44:16.620Z,81.8
2023-12-29T09:45:17.182Z,81.7
2023-12-29T09:46:16.900Z,81.5
2023-12-29T09:47:16.504Z,81.8
2023-12-29T09:48:17.208Z,81.8
2023-12-29T09:49:16.953Z,81.8
2023-12-29T09:50:16.643Z,81.6
2023-12-29T09:51:17.216Z,82.0
2023-12-29T09:52:16.874Z,82.3
2023-12-29T09:53:17.468Z,82.1
2023-12-29T09:54:17.006Z,82.2
2023-12-29T09:55:16.741Z,82.5
2023-12-29T09:56:17.392Z,82.2
2023-12-29T09:57:16.948Z,82.2
2023-12-29T09:58:17.568Z,82.4
2023-12-29T09:59:17.141Z,82.4
2023-12-29T10:00:16.696Z,82.4
2023-12-29T10:01:17.395Z,82.4
2023-12-29T10:02:16.987Z,82.6
2023-12-29T10:03:16.579Z,82.5
2023-12-29T10:04:17.302Z,82.6
2023-12-29T10:05:17.053Z,82.3
2023-12-29T10:06:16.806Z,82.2
2023-12-29T10:07:17.434Z,82.4
2023-12-29T10:08:17.017Z,82.1
2023-12-29T10:09:16.678Z,82.5
2023-12-29T10:10:17.648Z,82.4
2023-12-29T10:11:17.245Z,82.5
2023-12-29T10:12:16.772Z,82.2
2023-12-29T10:13:17.437Z,82.2
2023-12-29T10:14:17.004Z,82.4
2023-12-29T10:15:16.554Z,82.4
2023-12-29T10:16:17.297Z,82.4
2023-12-29T10:17:16.912Z,82.1
2023-12-29T10:18:17.688Z,82.4
2023-12-29T10:19:17.409Z,82.6
2023-12-29T10:20:17.012Z,82.2
2023-12-29T10:21:16.562Z,82.4
2023-12-29T10:22:17.295Z,82.5
2023-12-29T10:23:17.085Z,82.5
2023-12-29T10:24:16.657Z,82.6
2023-12-29T10:25:17.375Z,82.3
2023-12-29T10:26:17.003Z,82.6
2023-12-29T10:27:16.565Z,82.5
2023-12-29T10:28:17.221Z,82.3
2023-12-29T10:29:20.042Z,82.6
2023-12-29T10:30:28.621Z,83.1
2023-12-29T10:31:17.239Z,82.9
2023-12-29T10:32:16.922Z,82.7
2023-12-29T10:33:17.624Z,82.9
2023-12-29T10:34:17.417Z,82.9
2023-12-29T10:35:17.018Z,83.1
2023-12-29T10:36:16.584Z,83.0
2023-12-29T10:37:17.296Z,83.1
2023-12-29T10:38:16.894Z,83.2
2023-12-29T10:39:17.416Z,83.4
2023-12-29T10:40:17.098Z,83.6
2023-12-29T10:41:17.635Z,83.9
2023-12-29T10:42:17.275Z,84.1
2023-12-29T10:43:16.868Z,84.3
2023-12-29T10:44:17.427Z,84.4
2023-12-29T10:45:16.983Z,84.2
2023-12-29T10:46:16.836Z,84.2
2023-12-29T10:47:17.450Z,84.4
2023-12-29T10:48:17.028Z,84.3
2023-12-29T10:49:16.937Z,84.5
2023-12-29T10:50:16.656Z,84.4
2023-12-29T10:51:17.237Z,84.7
2023-12-29T10:52:17.115Z,85.0
2023-12-29T10:53:16.748Z,84.7
2023-12-29T10:54:17.296Z,84.7
2023-12-29T10:55:17.284Z,84.9
2023-12-29T10:56:16.980Z,84.6
2023-12-29T10:57:16.566Z,84.7
2023-12-29T10:58:17.342Z,84.6
2023-12-29T10:59:16.979Z,85.0
2023-12-29T11:00:16.520Z,85.1
2023-12-29T11:01:17.280Z,85.0
2023-12-29T11:02:17.057Z,85.0
2023-12-29T11:03:16.643Z,85.2
2023-12-29T11:04:17.264Z,85.2
2023-12-29T11:05:16.967Z,85.3
2023-12-29T11:06:16.556Z,85.2
2023-12-29T11:07:17.205Z,85.4
2023-12-29T11:08:16.820Z,85.4
2023-12-29T11:09:17.381Z,85.7
2023-12-29T11:10:17.005Z,85.6
2023-12-29T11:11:16.581Z,85.8
2023-12-29T11:12:17.103Z,85.7
2023-12-29T11:13:20.979Z,85.7
2023-12-29T11:14:16.684Z,85.7
2023-12-29T11:15:17.222Z,85.9
2023-12-29T11:16:16.871Z,85.8
2023-12-29T11:17:17.506Z,86.1
2023-12-29T11:18:17.200Z,86.3
2023-12-29T11:19:16.870Z,86.2
2023-12-29T11:20:17.496Z,86.2
2023-12-29T11:21:17.096Z,86.3
2023-12-29T11:22:16.712Z,86.3
2023-12-29T11:23:17.333Z,86.3
2023-12-29T11:24:28.358Z,86.3
2023-12-29T11:25:16.971Z,86.4
2023-12-29T11:26:16.615Z,86.3
2023-12-29T11:27:17.165Z,86.2
2023-12-29T11:28:17.345Z,86.3
2023-12-29T11:29:16.940Z,86.1
2023-12-29T11:30:17.587Z,86.2
2023-12-29T11:31:17.439Z,86.1
2023-12-29T11:32:17.072Z,85.9
2023-12-29T11:33:16.943Z,85.9
2023-12-29T11:34:16.992Z,86.0
2023-12-29T11:35:16.595Z,85.9
2023-12-29T11:36:31.492Z,85.9
2023-12-29T11:37:16.686Z,85.8
2023-12-29T11:38:17.290Z,86.0
2023-12-29T11:39:16.944Z,86.1
2023-12-29T11:40:17.659Z,85.9
2023-12-29T11:41:17.276Z,86.0
2023-12-29T11:42:17.017Z,86.1
2023-12-29T11:43:16.640Z,86.1
2023-12-29T11:44:17.315Z,86.0
2023-12-29T11:45:16.872Z,86.0
2023-12-29T11:46:17.570Z,86.1
2023-12-29T11:47:17.128Z,85.8
2023-12-29T11:48:16.872Z,85.6
2023-12-29T11:49:17.580Z,85.5
2023-12-29T11:50:17.208Z,85.5
2023-12-29T11:51:16.760Z,85.1
2023-12-29T11:52:20.171Z,85.1
2023-12-29T11:53:16.833Z,85.0
2023-12-29T11:54:17.376Z,85.1
2023-12-29T11:55:17.058Z,84.9
2023-12-29T11:56:16.681Z,85.0
2023-12-29T11:57:17.232Z,85.0
2023-12-29T11:58:16.982Z,84.4
2023-12-29T11:59:16.896Z,84.3
2023-12-29T12:00:17.484Z,84.4
2023-12-29T12:01:17.261Z,84.0
2023-12-29T12:02:16.912Z,83.9
2023-12-29T12:03:17.525Z,83.6
2023-12-29T12:04:17.137Z,83.6
2023-12-29T12:05:16.833Z,83.3
2023-12-29T12:06:17.453Z,83.1
2023-12-29T12:07:17.222Z,82.7
2023-12-29T12:08:16.855Z,82.6
2023-12-29T12:09:17.435Z,82.5
2023-12-29T12:10:17.193Z,82.0
2023-12-29T12:11:16.811Z,81.9
2023-12-29T12:12:17.358Z,81.6
2023-12-29T12:13:16.999Z,81.6
2023-12-29T12:14:16.529Z,81.5
2023-12-29T12:15:17.070Z,81.5
2023-12-29T12:16:16.776Z,81.3
2023-12-29T12:17:17.386Z,81.0
2023-12-29T12:18:17.041Z,79.4
2023-12-29T12:19:16.955Z,79.6
2023-12-29T12:20:16.647Z,78.2
2023-12-29T12:21:17.254Z,78.2
2023-12-29T12:22:16.870Z,78.0
2023-12-29T12:23:17.469Z,77.4
2023-12-29T12:24:17.035Z,76.9
2023-12-29T12:25:16.768Z,77.0
2023-12-29T12:26:17.472Z,77.2
2023-12-29T12:27:17.006Z,77.0
2023-12-29T12:28:16.779Z,77.1
2023-12-29T12:29:17.412Z,77.2
2023-12-29T12:30:17.007Z,77.1
2023-12-29T12:31:16.877Z,76.8
2023-12-29T12:32:17.738Z,76.5
2023-12-29T12:33:17.496Z,76.3
2023-12-29T12:34:17.306Z,76.1
2023-12-29T12:35:20.671Z,75.9
2023-12-29T12:36:16.760Z,76.3
2023-12-29T12:37:17.349Z,76.2
2023-12-29T12:38:16.910Z,76.3
2023-12-29T12:39:17.499Z,76.1
2023-12-29T12:40:17.190Z,75.9
2023-12-29T12:41:19.429Z,76.1
2023-12-29T12:42:16.975Z,75.8
2023-12-29T12:43:16.721Z,76.2
2023-12-29T12:44:17.472Z,76.2
2023-12-29T12:45:17.166Z,76.3
2023-12-29T12:46:16.844Z,76.0
2023-12-29T12:47:19.886Z,75.7
2023-12-29T12:48:16.885Z,75.5
2023-12-29T12:49:17.702Z,75.5
2023-12-29T12:50:17.341Z,75.9
2023-12-29T12:51:16.907Z,75.7
2023-12-29T12:52:17.576Z,75.7
2023-12-29T12:53:17.208Z,75.9
2023-12-29T12:54:16.769Z,76.6
2023-12-29T12:55:17.508Z,76.0
2023-12-29T12:56:17.173Z,75.9
2023-12-29T12:57:16.803Z,75.7
2023-12-29T12:58:17.441Z,75.5
2023-12-29T12:59:17.054Z,75.6
2023-12-29T13:00:16.861Z,75.6
2023-12-29T13:01:17.432Z,76.1
2023-12-29T13:02:17.836Z,76.2
2023-12-29T13:03:17.025Z,75.9
2023-12-29T13:04:16.991Z,75.5
2023-12-29T13:05:16.949Z,75.8
2023-12-29T13:06:16.766Z,75.8
2023-12-29T13:07:17.469Z,76.6
2023-12-29T13:08:30.550Z,76.4
2023-12-29T13:09:16.664Z,76.7
2023-12-29T13:10:17.288Z,76.5
2023-12-29T13:11:16.913Z,76.7
2023-12-29T13:12:17.468Z,76.7
2023-12-29T13:13:17.122Z,76.6
2023-12-29T13:14:16.766Z,76.6
2023-12-29T13:15:17.326Z,76.3
2023-12-29T13:16:17.099Z,76.0
2023-12-29T13:17:16.830Z,75.8
2023-12-29T13:18:17.585Z,76.0